createdAt,value
2017-08-23T00:00:26.249Z,9.10
2017-08-23T00:02:52.166Z,10.97
2017-08-23T00:05:18.140Z,8.97
2017-08-23T00:07:44.098Z,9.60
2017-08-23T00:10:10.090Z,9.77
2017-08-23T00:12:36.108Z,8.90
2017-08-23T00:15:02.139Z,9.30
2017-08-23T00:17:28.152Z,8.57
2017-08-23T00:19:54.139Z,9.00
2017-08-23T00:22:20.188Z,9.10
2017-08-23T00:24:47.047Z,9.50
2017-08-23T00:27:13.255Z,9.17
2017-08-23T00:29:39.271Z,8.90
2017-08-23T00:32:05.211Z,8.47
2017-08-23T00:34:31.231Z,9.50
2017-08-23T00:36:57.277Z,9.63
2017-08-23T00:39:23.259Z,9.20
2017-08-23T00:41:49.207Z,10.00
2017-08-23T00:44:15.162Z,11.30
2017-08-23T00:46:41.147Z,9.27
2017-08-23T00:49:07.146Z,9.37
2017-08-23T00:51:33.180Z,10.07
2017-08-23T00:53:59.255Z,8.73
2017-08-23T00:56:25.228Z,9.53
2017-08-23T00:58:51.255Z,8.37
2017-08-23T01:01:17.267Z,8.83
2017-08-23T01:03:43.320Z,9.70
2017-08-23T01:06:09.319Z,9.87
2017-08-23T01:08:35.354Z,9.83
2017-08-23T01:11:06.527Z,10.30
2017-08-23T01:13:33.260Z,9.33
2017-08-23T01:15:59.305Z,9.70
2017-08-23T01:18:25.310Z,9.43
2017-08-23T01:20:51.344Z,9.10
2017-08-23T01:23:17.360Z,9.30
2017-08-23T01:25:44.205Z,8.90
2017-08-23T01:28:10.195Z,9.00
2017-08-23T01:30:36.126Z,10.03
2017-08-23T01:33:02.113Z,9.77
2017-08-23T01:35:29.010Z,9.80
2017-08-23T01:37:54.991Z,9.73
2017-08-23T01:40:20.972Z,10.73
2017-08-23T01:42:46.984Z,11.10
2017-08-23T01:45:12.979Z,10.07
2017-08-23T01:47:38.976Z,10.50
2017-08-23T01:50:05.932Z,10.33
2017-08-23T01:52:31.952Z,11.30
2017-08-23T01:54:57.974Z,10.90
2017-08-23T01:57:23.958Z,10.33
2017-08-23T01:59:49.972Z,11.67
2017-08-23T02:02:15.949Z,10.60
2017-08-23T02:04:41.911Z,10.70
2017-08-23T02:07:07.851Z,11.40
2017-08-23T02:09:33.831Z,9.97
2017-08-23T02:11:59.813Z,11.47
2017-08-23T02:14:25.892Z,11.80
2017-08-23T02:16:51.811Z,11.00
2017-08-23T02:19:17.807Z,12.57
2017-08-23T02:21:43.759Z,11.40
2017-08-23T02:24:09.696Z,11.60
2017-08-23T02:26:36.659Z,11.27
2017-08-23T02:29:02.578Z,11.50
2017-08-23T02:31:28.541Z,11.70
2017-08-23T02:33:54.492Z,11.57
2017-08-23T02:36:20.504Z,12.27
2017-08-23T02:38:46.459Z,11.10
2017-08-23T02:41:12.413Z,11.47
2017-08-23T02:43:38.428Z,10.67
2017-08-23T02:46:04.347Z,12.90
2017-08-23T02:48:30.367Z,12.40
2017-08-23T02:50:56.302Z,13.00
2017-08-23T02:53:22.247Z,11.83
2017-08-23T02:55:48.722Z,14.00
2017-08-23T02:58:14.736Z,13.80
2017-08-23T03:00:40.698Z,13.50
2017-08-23T03:03:06.727Z,14.63
2017-08-23T03:05:32.674Z,13.53
2017-08-23T03:07:58.668Z,12.77
2017-08-23T03:10:24.935Z,11.70
2017-08-23T03:12:51.021Z,12.10
2017-08-23T03:15:16.994Z,11.03
2017-08-23T03:17:42.943Z,11.60
2017-08-23T03:20:08.963Z,12.30
2017-08-23T03:22:34.946Z,11.90
2017-08-23T03:25:00.928Z,11.10
2017-08-23T03:27:26.976Z,11.97
2017-08-23T03:29:53.211Z,11.10
2017-08-23T03:32:19.405Z,12.10
2017-08-23T03:34:45.379Z,11.70
2017-08-23T03:37:11.339Z,11.60
2017-08-23T03:39:37.283Z,10.90
2017-08-23T03:42:03.254Z,11.27
2017-08-23T03:44:29.194Z,12.53
2017-08-23T03:46:55.132Z,11.60
2017-08-23T03:49:21.153Z,11.60
2017-08-23T03:51:47.170Z,11.97
2017-08-23T03:54:13.311Z,11.37
2017-08-23T03:56:39.247Z,12.77
2017-08-23T03:59:05.227Z,12.67
2017-08-23T04:01:31.243Z,12.23
2017-08-23T04:03:57.210Z,14.27
2017-08-23T04:06:23.183Z,12.47
2017-08-23T04:08:49.123Z,12.50
2017-08-23T04:11:15.073Z,12.67
2017-08-23T04:13:41.175Z,12.50
2017-08-23T04:16:07.128Z,12.53
2017-08-23T04:18:33.130Z,12.43
2017-08-23T04:20:59.080Z,12.47
2017-08-23T04:23:25.114Z,11.90
2017-08-23T04:25:51.077Z,12.90
2017-08-23T04:28:17.101Z,12.23
2017-08-23T04:30:43.135Z,13.53
2017-08-23T04:33:09.594Z,11.97
2017-08-23T04:35:35.629Z,12.60
2017-08-23T04:38:02.677Z,13.63
2017-08-23T04:40:29.718Z,13.80
2017-08-23T04:42:55.753Z,11.17
2017-08-23T04:45:21.715Z,12.90
2017-08-23T04:47:47.873Z,12.23
2017-08-23T04:50:13.920Z,12.10
2017-08-23T04:52:39.900Z,12.50
2017-08-23T04:55:06.172Z,11.80
2017-08-23T04:57:32.526Z,12.30
2017-08-23T04:59:58.499Z,14.20
2017-08-23T05:02:24.499Z,13.30
2017-08-23T05:04:50.467Z,12.70
2017-08-23T05:07:16.391Z,12.90
2017-08-23T05:09:42.335Z,13.50
2017-08-23T05:12:08.305Z,13.03
2017-08-23T05:14:34.356Z,14.00
2017-08-23T05:17:00.316Z,12.53
2017-08-23T05:19:26.282Z,12.80
2017-08-23T05:21:52.268Z,12.67
2017-08-23T05:24:18.243Z,14.50
2017-08-23T05:26:44.228Z,13.70
2017-08-23T05:29:10.181Z,17.73
2017-08-23T05:31:36.231Z,15.03
2017-08-23T05:34:02.231Z,12.83
2017-08-23T05:36:28.219Z,13.00
2017-08-23T05:38:54.146Z,12.20
2017-08-23T05:41:20.146Z,13.20
2017-08-23T05:43:47.031Z,11.37
2017-08-23T05:46:13.022Z,12.83
2017-08-23T05:48:39.151Z,11.10
2017-08-23T05:51:05.130Z,13.03
2017-08-23T05:53:31.068Z,11.90
2017-08-23T05:55:58.093Z,12.70
2017-08-23T05:58:24.110Z,12.70
2017-08-23T06:00:50.066Z,13.17
2017-08-23T06:03:16.033Z,12.73
2017-08-23T06:05:42.057Z,12.83
2017-08-23T06:08:08.076Z,11.17
2017-08-23T06:10:34.658Z,12.30
2017-08-23T06:13:00.675Z,11.23
2017-08-23T06:15:26.894Z,12.50
2017-08-23T06:17:53.004Z,11.53
2017-08-23T06:20:19.031Z,11.80
2017-08-23T06:22:45.080Z,11.50
2017-08-23T06:25:11.355Z,12.23
2017-08-23T06:27:37.328Z,13.17
2017-08-23T06:30:03.406Z,12.90
2017-08-23T06:32:29.427Z,11.57
2017-08-23T06:34:55.529Z,12.73
2017-08-23T06:37:21.504Z,12.47
2017-08-23T06:39:47.443Z,12.30
2017-08-23T06:42:14.078Z,12.90
2017-08-23T06:44:40.087Z,12.03
2017-08-23T06:47:06.119Z,12.77
2017-08-23T06:49:32.131Z,12.57
2017-08-23T06:51:58.278Z,12.30
2017-08-23T06:54:24.879Z,11.60
2017-08-23T06:56:50.883Z,12.17
2017-08-23T06:59:16.855Z,12.80
2017-08-23T07:01:43.643Z,12.17
2017-08-23T07:04:11.235Z,12.70
2017-08-23T07:06:38.236Z,12.50
2017-08-23T07:09:04.991Z,12.13
2017-08-23T07:11:31.742Z,11.87
2017-08-23T07:13:57.748Z,12.30
2017-08-23T07:16:23.660Z,11.60
2017-08-23T07:18:49.608Z,12.37
2017-08-23T07:21:15.669Z,11.80
2017-08-23T07:23:41.689Z,11.57
2017-08-23T07:26:07.659Z,12.90
2017-08-23T07:28:33.658Z,11.53
2017-08-23T07:30:59.619Z,13.17
2017-08-23T07:33:25.541Z,13.73
2017-08-23T07:35:51.525Z,12.70
2017-08-23T07:38:18.642Z,12.40
2017-08-23T07:40:45.107Z,12.77
2017-08-23T07:43:11.075Z,12.97
2017-08-23T07:45:37.037Z,11.30
2017-08-23T07:48:02.997Z,12.17
2017-08-23T07:50:29.009Z,11.63
2017-08-23T07:52:55.023Z,12.03
2017-08-23T07:55:20.988Z,11.47
2017-08-23T07:57:46.908Z,10.53
2017-08-23T08:00:12.877Z,12.30
2017-08-23T08:02:38.823Z,12.10
2017-08-23T08:05:04.806Z,11.40
2017-08-23T08:07:30.849Z,11.50
2017-08-23T08:09:56.834Z,11.77
2017-08-23T08:12:22.950Z,10.23
2017-08-23T08:14:48.926Z,11.20
2017-08-23T08:17:14.891Z,10.83
2017-08-23T08:19:40.894Z,11.30
2017-08-23T08:22:06.859Z,10.57
2017-08-23T08:24:32.815Z,10.67
2017-08-23T08:26:59.383Z,10.67
2017-08-23T08:29:25.372Z,10.80
2017-08-23T08:31:51.310Z,10.80
2017-08-23T08:34:18.155Z,10.57
2017-08-23T08:36:44.127Z,10.40
2017-08-23T08:39:10.882Z,10.40
2017-08-23T08:41:36.813Z,11.93
2017-08-23T08:44:03.484Z,9.93
2017-08-23T08:46:29.506Z,10.80
2017-08-23T08:48:55.499Z,11.07
2017-08-23T08:51:21.503Z,10.80
2017-08-23T08:53:47.554Z,11.97
2017-08-23T08:56:14.551Z,11.07
2017-08-23T08:58:40.517Z,10.50
2017-08-23T09:01:08.276Z,10.57
2017-08-23T09:03:34.387Z,9.30
2017-08-23T09:06:00.391Z,9.67
2017-08-23T09:08:26.344Z,10.53
2017-08-23T09:10:52.709Z,10.20
2017-08-23T09:13:18.748Z,9.97
2017-08-23T09:15:44.714Z,10.17
2017-08-23T09:18:10.766Z,10.50
2017-08-23T09:20:37.513Z,9.10
2017-08-23T09:23:03.484Z,10.00
2017-08-23T09:25:29.445Z,9.83
2017-08-23T09:27:55.419Z,10.17
2017-08-23T09:30:21.387Z,8.77
2017-08-23T09:32:47.412Z,9.60
2017-08-23T09:35:13.407Z,9.53
2017-08-23T09:37:39.375Z,15.07
2017-08-23T09:40:05.410Z,9.83
2017-08-23T09:42:31.354Z,9.90
2017-08-23T09:44:57.307Z,10.13
2017-08-23T09:47:23.375Z,8.60
2017-08-23T09:49:49.460Z,9.23
2017-08-23T09:52:15.400Z,9.20
2017-08-23T09:54:41.336Z,10.50
2017-08-23T09:57:07.343Z,8.87
2017-08-23T09:59:33.311Z,8.70
2017-08-23T10:01:59.259Z,8.57
2017-08-23T10:04:25.196Z,8.23
2017-08-23T10:06:51.117Z,8.73
2017-08-23T10:09:17.155Z,7.73
2017-08-23T10:11:43.993Z,8.70
2017-08-23T10:14:11.055Z,8.30
2017-08-23T10:16:37.032Z,8.30
2017-08-23T10:19:03.030Z,8.70
2017-08-23T10:21:29.015Z,7.40
2017-08-23T10:23:54.987Z,8.00
2017-08-23T10:26:20.930Z,7.77
2017-08-23T10:28:46.885Z,8.50
2017-08-23T10:31:13.068Z,8.33
2017-08-23T10:33:39.064Z,7.90
2017-08-23T10:36:05.056Z,8.30
2017-08-23T10:38:31.023Z,7.30
2017-08-23T10:40:56.991Z,7.30
2017-08-23T10:43:22.992Z,8.13
2017-08-23T10:45:48.962Z,8.60
2017-08-23T10:48:14.903Z,8.43
2017-08-23T10:50:41.028Z,7.93
2017-08-23T10:53:07.021Z,7.83
2017-08-23T10:55:33.087Z,8.00
2017-08-23T10:57:59.072Z,7.50
2017-08-23T11:00:25.157Z,7.90
2017-08-23T11:02:51.187Z,6.87
2017-08-23T11:05:17.225Z,6.60
2017-08-23T11:07:44.102Z,7.17
2017-08-23T11:10:10.107Z,6.13
2017-08-23T11:12:36.085Z,6.83
2017-08-23T11:15:02.519Z,6.50
2017-08-23T11:17:29.257Z,7.20
2017-08-23T11:19:55.276Z,7.40
2017-08-23T11:22:21.250Z,6.83
2017-08-23T11:24:47.296Z,7.07
2017-08-23T11:27:13.268Z,8.67
2017-08-23T11:29:40.159Z,8.20
2017-08-23T11:32:06.182Z,7.00
2017-08-23T11:34:32.185Z,6.87
2017-08-23T11:36:58.186Z,7.20
2017-08-23T11:39:24.151Z,7.57
2017-08-23T11:41:50.165Z,7.10
2017-08-23T11:44:16.155Z,6.80
2017-08-23T11:46:42.122Z,6.83
2017-08-23T11:49:09.138Z,8.80
2017-08-23T11:51:35.151Z,8.00
2017-08-23T11:54:01.201Z,7.57
2017-08-23T11:56:27.293Z,5.83
2017-08-23T11:58:53.480Z,6.30
2017-08-23T12:01:19.483Z,6.37
2017-08-23T12:03:45.532Z,6.73
2017-08-23T12:06:11.606Z,5.93
2017-08-23T12:08:37.595Z,6.00
2017-08-23T12:11:03.668Z,5.90
2017-08-23T12:13:30.471Z,6.30
2017-08-23T12:15:57.442Z,6.20
2017-08-23T12:18:23.473Z,6.00
2017-08-23T12:20:49.723Z,5.17
2017-08-23T12:23:15.846Z,5.60
2017-08-23T12:25:41.789Z,5.67
2017-08-23T12:28:09.133Z,6.20
2017-08-23T12:30:35.240Z,6.30
2017-08-23T12:33:01.459Z,5.30
2017-08-23T12:35:27.562Z,6.40
2017-08-23T12:37:53.557Z,5.53
2017-08-23T12:40:19.521Z,5.53
2017-08-23T12:42:45.528Z,5.50
2017-08-23T12:45:11.594Z,5.40
2017-08-23T12:47:37.838Z,5.47
2017-08-23T12:50:03.831Z,5.13
2017-08-23T12:52:30.058Z,5.50
2017-08-23T12:54:56.187Z,5.53
2017-08-23T12:57:22.255Z,5.60
2017-08-23T12:59:48.283Z,5.47
2017-08-23T13:02:14.304Z,5.33
2017-08-23T13:04:40.411Z,5.17
2017-08-23T13:07:08.117Z,5.50
2017-08-23T13:09:34.253Z,5.63
2017-08-23T13:12:00.735Z,5.53
2017-08-23T13:14:26.797Z,5.57
2017-08-23T13:16:52.807Z,5.50
2017-08-23T13:19:19.339Z,5.50
2017-08-23T13:21:45.390Z,4.83
2017-08-23T13:24:11.388Z,5.30
2017-08-23T13:26:38.389Z,5.77
2017-08-23T13:29:04.476Z,5.00
2017-08-23T13:31:30.412Z,5.03
2017-08-23T13:33:56.400Z,4.90
2017-08-23T13:36:22.464Z,5.50
2017-08-23T13:38:48.711Z,6.33
2017-08-23T13:41:14.829Z,5.03
2017-08-23T13:43:40.952Z,5.10
2017-08-23T13:46:06.987Z,5.80
2017-08-23T13:48:33.069Z,5.03
2017-08-23T13:50:58.991Z,5.20
2017-08-23T13:53:24.919Z,4.53
2017-08-23T13:55:51.137Z,5.33
2017-08-23T13:58:18.086Z,5.33
2017-08-23T14:00:44.180Z,5.43
2017-08-23T14:03:10.439Z,6.10
2017-08-23T14:05:36.460Z,5.07
2017-08-23T14:08:03.308Z,5.33
2017-08-23T14:10:29.949Z,5.80
2017-08-23T14:12:56.851Z,5.20
2017-08-23T14:15:23.129Z,5.60
2017-08-23T14:20:22.193Z,5.53
2017-08-23T14:22:50.198Z,5.83
2017-08-23T14:25:16.221Z,5.37
2017-08-23T14:27:42.239Z,5.50
2017-08-23T14:30:10.172Z,5.70
2017-08-23T14:32:36.361Z,4.93
2017-08-23T14:35:03.040Z,5.83
2017-08-23T14:37:29.915Z,5.90
2017-08-23T14:39:56.620Z,5.50
2017-08-23T14:42:23.287Z,5.53
2017-08-23T14:44:50.015Z,5.57
2017-08-23T14:47:17.073Z,5.73
2017-08-23T14:49:43.085Z,5.93
2017-08-23T14:52:10.005Z,5.40
2017-08-23T14:59:43.777Z,5.80
2017-08-23T15:02:11.558Z,5.80
2017-08-23T15:04:40.015Z,5.60
2017-08-23T15:07:07.715Z,5.60
2017-08-23T15:09:34.612Z,6.77
2017-08-23T15:12:01.205Z,6.30
2017-08-23T15:14:28.059Z,6.03
2017-08-23T15:16:55.613Z,8.37
2017-08-23T15:19:23.125Z,5.60
2017-08-23T15:21:50.433Z,6.20
2017-08-23T15:24:19.334Z,5.83
2017-08-23T15:26:46.151Z,5.70
2017-08-23T15:29:12.105Z,6.03
2017-08-23T15:31:40.645Z,5.67
2017-08-23T15:34:08.400Z,6.40
2017-08-23T15:36:37.187Z,6.60
2017-08-23T15:39:04.058Z,5.60
2017-08-23T15:41:30.144Z,5.87
2017-08-23T15:43:56.313Z,6.23
2017-08-23T15:46:22.388Z,5.97
2017-08-23T15:48:48.312Z,6.67
2017-08-23T15:51:15.988Z,5.93
2017-08-23T15:56:18.544Z,7.30
2017-08-23T15:58:45.792Z,8.00
2017-08-23T16:01:11.816Z,6.10
2017-08-23T16:03:38.731Z,5.83
2017-08-23T16:06:07.015Z,5.47
2017-08-23T16:08:35.259Z,5.23
2017-08-23T16:11:02.087Z,6.03
2017-08-23T16:13:28.812Z,7.30
2017-08-23T16:15:55.742Z,6.27
2017-08-23T16:18:23.503Z,7.03
2017-08-23T16:25:58.043Z,6.23
2017-08-23T16:28:26.808Z,6.30
2017-08-23T16:30:59.850Z,6.10
2017-08-23T16:33:29.073Z,5.70
2017-08-23T16:38:31.521Z,6.03
2017-08-23T16:40:59.741Z,5.50
2017-08-23T16:43:26.440Z,8.63
2017-08-23T16:45:52.980Z,6.00
2017-08-23T16:48:21.076Z,5.90
2017-08-23T16:50:48.498Z,8.80
2017-08-23T16:53:20.476Z,6.93
2017-08-23T16:55:48.656Z,6.63
2017-08-23T16:58:16.556Z,6.20
2017-08-23T17:00:44.222Z,5.60
2017-08-23T17:05:50.778Z,6.57
2017-08-23T17:08:21.384Z,8.17
2017-08-23T17:10:47.651Z,6.70
2017-08-23T17:13:16.175Z,7.00
2017-08-23T17:15:44.228Z,7.83
2017-08-23T17:18:10.878Z,9.80
2017-08-23T17:20:40.791Z,11.20
2017-08-23T17:23:11.392Z,7.27
2017-08-23T17:28:19.569Z,6.17
2017-08-23T17:31:08.793Z,6.27
2017-08-23T17:33:38.164Z,6.20
2017-08-23T17:36:07.819Z,6.30
2017-08-23T17:38:39.107Z,5.87
2017-08-23T17:43:37.977Z,7.20
2017-08-23T17:46:04.837Z,6.53
2017-08-23T17:48:31.053Z,7.17
2017-08-23T17:50:57.177Z,7.43
2017-08-23T17:53:23.934Z,7.10
2017-08-23T17:55:50.858Z,7.03
2017-08-23T17:58:17.518Z,7.40
2017-08-23T18:00:43.769Z,8.30
2017-08-23T18:03:11.002Z,7.70
2017-08-23T18:05:37.194Z,7.97
2017-08-23T18:08:04.385Z,7.87
2017-08-23T18:10:31.451Z,9.60
2017-08-23T18:12:59.917Z,9.60
2017-08-23T18:15:27.041Z,9.07
2017-08-23T18:17:53.370Z,9.03
2017-08-23T18:20:19.745Z,10.43
2017-08-23T18:22:48.640Z,12.33
2017-08-23T18:25:16.981Z,14.57
2017-08-23T18:27:43.189Z,10.77
2017-08-23T18:30:10.243Z,10.77
2017-08-23T18:32:36.755Z,9.63
2017-08-23T18:35:10.420Z,10.60
2017-08-23T18:37:41.534Z,10.40
2017-08-23T18:40:10.072Z,10.83
2017-08-23T18:42:37.774Z,9.80
2017-08-23T18:45:04.151Z,10.70
2017-08-23T18:47:30.320Z,10.43
2017-08-23T18:49:56.696Z,11.53
2017-08-23T18:52:23.089Z,11.60
2017-08-23T18:54:49.363Z,10.70
2017-08-23T18:57:15.414Z,12.53
2017-08-23T18:59:42.792Z,12.00
2017-08-23T19:02:09.068Z,11.50
2017-08-23T19:04:35.252Z,11.90
2017-08-23T19:07:01.932Z,11.20
2017-08-23T19:09:28.568Z,11.50
2017-08-23T19:11:55.570Z,11.30
2017-08-23T19:14:23.701Z,12.97
2017-08-23T19:16:49.716Z,11.80
2017-08-23T19:19:15.806Z,12.03
2017-08-23T19:21:41.990Z,13.07
2017-08-23T19:24:09.873Z,11.83
2017-08-23T19:26:35.949Z,11.97
2017-08-23T19:29:02.571Z,11.37
2017-08-23T19:31:28.550Z,10.73
2017-08-23T19:33:55.613Z,11.67
2017-08-23T19:38:53.557Z,10.80
2017-08-23T19:41:19.628Z,11.70
2017-08-23T19:46:19.010Z,13.07
2017-08-23T19:48:48.784Z,11.20
2017-08-23T19:51:15.050Z,12.27
2017-08-23T19:53:41.742Z,11.63
2017-08-23T19:56:07.873Z,11.10
2017-08-23T19:58:34.041Z,10.97
2017-08-23T20:01:01.410Z,12.27
2017-08-23T20:03:28.970Z,11.80
2017-08-23T20:05:56.768Z,11.93
2017-08-23T20:08:23.053Z,13.37
2017-08-23T20:10:49.105Z,12.40
2017-08-23T20:15:48.240Z,13.10
2017-08-23T20:18:15.330Z,11.67
2017-08-23T20:20:41.905Z,11.83
2017-08-23T20:23:07.927Z,12.33
2017-08-23T20:28:07.124Z,12.40
2017-08-23T20:30:34.544Z,13.13
2017-08-23T20:33:00.587Z,13.27
2017-08-23T20:35:26.600Z,14.40
2017-08-23T20:37:54.740Z,11.57
2017-08-23T20:40:20.767Z,11.73
2017-08-23T20:42:47.047Z,12.63
2017-08-23T20:45:13.049Z,13.10
2017-08-23T20:47:46.196Z,12.20
2017-08-23T20:57:59.040Z,12.53
2017-08-23T21:00:29.911Z,10.70
2017-08-23T21:02:57.737Z,10.83
2017-08-23T21:07:57.001Z,12.13
2017-08-23T21:10:22.972Z,11.80
2017-08-23T21:12:48.942Z,10.57
2017-08-23T21:15:14.907Z,11.83
2017-08-23T21:17:40.937Z,11.30
2017-08-23T21:20:07.854Z,11.10
2017-08-23T21:22:33.830Z,11.40
2017-08-23T21:24:59.804Z,10.87
2017-08-23T21:27:25.822Z,11.20
2017-08-23T21:29:51.818Z,11.77
2017-08-23T21:32:18.040Z,10.90
2017-08-23T21:34:44.074Z,11.10
2017-08-23T21:37:10.099Z,11.93
2017-08-23T21:39:36.408Z,10.80
2017-08-23T21:42:02.411Z,11.57
2017-08-23T21:44:28.487Z,11.37
2017-08-23T21:46:54.468Z,10.30
2017-08-23T21:49:20.480Z,10.60
2017-08-23T21:51:46.575Z,12.20
2017-08-23T21:54:12.996Z,11.97
2017-08-23T21:56:39.013Z,11.00
2017-08-23T21:59:05.732Z,11.10
2017-08-23T22:01:31.768Z,12.37
2017-08-23T22:03:57.813Z,11.93
2017-08-23T22:06:23.831Z,11.57
2017-08-23T22:08:50.574Z,12.30
2017-08-23T22:11:16.658Z,12.07
2017-08-23T22:13:43.311Z,11.27
2017-08-23T22:16:09.302Z,10.47
2017-08-23T22:18:35.329Z,11.10
2017-08-23T22:21:01.372Z,12.30
2017-08-23T22:23:27.327Z,11.20
2017-08-23T22:25:53.304Z,11.10
2017-08-23T22:28:19.339Z,10.87
2017-08-23T22:30:45.306Z,11.40
2017-08-23T22:33:11.691Z,12.47
2017-08-23T22:35:38.126Z,10.50
2017-08-23T22:38:05.287Z,11.57
2017-08-23T22:40:31.243Z,11.50
2017-08-23T22:42:57.252Z,10.80
2017-08-23T22:45:23.231Z,11.50
2017-08-23T22:47:49.261Z,10.40
2017-08-23T22:50:15.281Z,11.87
2017-08-23T22:52:41.277Z,11.00
2017-08-23T22:55:07.301Z,12.20
2017-08-23T22:57:34.139Z,10.60
2017-08-23T23:00:00.359Z,11.00
2017-08-23T23:02:26.310Z,11.50
2017-08-23T23:04:52.601Z,11.53
2017-08-23T23:07:18.980Z,10.80
2017-08-23T23:09:45.030Z,11.33
2017-08-23T23:12:11.260Z,11.90
2017-08-23T23:14:37.342Z,10.80
2017-08-23T23:17:03.352Z,11.63
2017-08-23T23:19:29.459Z,10.60
2017-08-23T23:21:55.491Z,12.03
2017-08-23T23:24:21.525Z,12.10
2017-08-23T23:26:47.517Z,12.83
2017-08-23T23:29:13.554Z,12.30
2017-08-23T23:31:39.578Z,12.23
2017-08-23T23:34:05.579Z,11.83
2017-08-23T23:36:31.661Z,12.67
2017-08-23T23:38:57.640Z,11.67
2017-08-23T23:41:23.619Z,11.57
2017-08-23T23:43:49.583Z,12.00
2017-08-23T23:46:16.124Z,11.63
2017-08-23T23:48:43.064Z,11.10
2017-08-23T23:51:09.010Z,12.43
2017-08-23T23:53:35.084Z,11.30
2017-08-23T23:56:01.158Z,11.80
2017-08-23T23:58:28.206Z,11.70
